sensor_id;sensor_type;location;lat;lon;timestamp;pressure;altitude;pressure_sealevel;temperature;humidity
63808;BME280;49961;43.970;22.868;2023-03-16T00:00:43;100690.69;;;7.10;100.00
63808;BME280;49961;43.970;22.868;2023-03-16T00:01:44;100700.56;;;7.08;100.00
63808;BME280;49961;43.970;22.868;2023-03-16T00:02:44;100688.34;;;7.09;100.00
63808;BME280;49961;43.970;22.868;2023-03-16T00:03:44;100695.81;;;7.12;100.00
63808;BME280;49961;43.970;22.868;2023-03-16T00:04:45;100711.94;;;7.10;100.00
63808;BME280;49961;43.970;22.868;2023-03-16T00:05:48;100700.53;;;7.11;100.00
63808;BME280;49961;43.970;22.868;2023-03-16T00:06:49;100703.31;;;7.08;100.00
63808;BME280;49961;43.970;22.868;2023-03-16T00:07:50;100534.63;;;6.02;100.00
63808;BME280;49961;43.970;22.868;2023-03-16T00:08:50;100708.41;;;7.13;100.00
63808;BME280;49961;43.970;22.868;2023-03-16T00:09:51;100703.25;;;7.15;100.00
63808;BME280;49961;43.970;22.868;2023-03-16T00:10:52;100710.03;;;7.03;100.00
63808;BME280;49961;43.970;22.868;2023-03-16T00:11:53;100701.81;;;7.00;100.00
63808;BME280;49961;43.970;22.868;2023-03-16T00:12:54;100702.56;;;7.04;100.00
63808;BME280;49961;43.970;22.868;2023-03-16T00:13:55;100634.50;;;6.50;100.00
63808;BME280;49961;43.970;22.868;2023-03-16T00:14:55;100711.63;;;7.04;100.00
63808;BME280;49961;43.970;22.868;2023-03-16T00:15:58;100700.53;;;7.11;100.00
63808;BME280;49961;43.970;22.868;2023-03-16T00:16:59;100719.03;;;7.14;100.00
63808;BME280;49961;43.970;22.868;2023-03-16T00:17:59;100708.00;;;7.14;100.00
63808;BME280;49961;43.970;22.868;2023-03-16T00:19:00;100706.81;;;7.15;100.00
63808;BME280;49961;43.970;22.868;2023-03-16T00:20:02;100715.09;;;7.12;100.00
63808;BME280;49961;43.970;22.868;2023-03-16T00:21:05;100715.94;;;7.05;100.00
63808;BME280;49961;43.970;22.868;2023-03-16T00:22:06;100715.16;;;7.05;100.00
63808;BME280;49961;43.970;22.868;2023-03-16T00:23:06;100721.09;;;7.00;100.00
63808;BME280;49961;43.970;22.868;2023-03-16T00:24:07;100716.81;;;6.95;100.00
63808;BME280;49961;43.970;22.868;2023-03-16T00:25:08;100716.44;;;6.90;100.00
63808;BME280;49961;43.970;22.868;2023-03-16T00:26:09;100720.78;;;6.87;100.00
63808;BME280;49961;43.970;22.868;2023-03-16T00:27:13;100707.44;;;6.82;100.00
63808;BME280;49961;43.970;22.868;2023-03-16T00:28:14;100724.31;;;6.91;100.00
63808;BME280;49961;43.970;22.868;2023-03-16T00:29:14;100723.91;;;6.93;100.00
63808;BME280;49961;43.970;22.868;2023-03-16T00:30:15;100720.38;;;6.89;100.00
63808;BME280;49961;43.970;22.868;2023-03-16T00:31:15;100728.19;;;6.97;100.00
63808;BME280;49961;43.970;22.868;2023-03-16T00:32:19;100739.69;;;6.85;100.00
63808;BME280;49961;43.970;22.868;2023-03-16T00:33:20;100728.69;;;6.85;100.00
63808;BME280;49961;43.970;22.868;2023-03-16T00:34:22;100743.31;;;6.75;100.00
63808;BME280;49961;43.970;22.868;2023-03-16T00:35:22;100726.00;;;6.78;100.00
63808;BME280;49961;43.970;22.868;2023-03-16T00:36:23;100736.59;;;6.76;100.00
63808;BME280;49961;43.970;22.868;2023-03-16T00:37:25;100740.56;;;6.75;100.00
63808;BME280;49961;43.970;22.868;2023-03-16T00:38:25;100740.56;;;6.75;100.00
63808;BME280;49961;43.970;22.868;2023-03-16T00:39:26;100750.00;;;6.74;100.00
63808;BME280;49961;43.970;22.868;2023-03-16T00:40:26;100744.88;;;6.76;100.00
63808;BME280;49961;43.970;22.868;2023-03-16T00:41:26;100748.44;;;6.73;100.00
63808;BME280;49961;43.970;22.868;2023-03-16T00:42:28;100739.78;;;6.71;100.00
63808;BME280;49961;43.970;22.868;2023-03-16T00:43:30;100724.91;;;6.62;100.00
63808;BME280;49961;43.970;22.868;2023-03-16T00:44:31;100612.88;;;5.94;100.00
63808;BME280;49961;43.970;22.868;2023-03-16T00:45:31;100746.38;;;6.88;100.00
63808;BME280;49961;43.970;22.868;2023-03-16T00:46:31;100756.56;;;6.91;100.00
63808;BME280;49961;43.970;22.868;2023-03-16T00:47:33;100749.13;;;6.88;100.00
63808;BME280;49961;43.970;22.868;2023-03-16T00:48:35;100710.78;;;6.56;100.00
63808;BME280;49961;43.970;22.868;2023-03-16T00:49:36;100761.41;;;6.73;100.00
63808;BME280;49961;43.970;22.868;2023-03-16T00:50:37;100639.53;;;6.00;100.00
63808;BME280;49961;43.970;22.868;2023-03-16T00:51:38;100759.88;;;6.68;100.00
63808;BME280;49961;43.970;22.868;2023-03-16T00:52:39;100759.03;;;6.75;100.00
63808;BME280;49961;43.970;22.868;2023-03-16T00:53:42;100763.00;;;6.70;100.00
63808;BME280;49961;43.970;22.868;2023-03-16T00:54:45;100672.13;;;6.12;100.00
63808;BME280;49961;43.970;22.868;2023-03-16T00:55:46;100772.06;;;6.67;100.00
63808;BME280;49961;43.970;22.868;2023-03-16T00:56:47;100755.56;;;6.64;100.00
63808;BME280;49961;43.970;22.868;2023-03-16T00:57:47;100743.41;;;6.58;100.00
63808;BME280;49961;43.970;22.868;2023-03-16T00:58:48;100762.59;;;6.75;100.00
63808;BME280;49961;43.970;22.868;2023-03-16T00:59:49;100769.25;;;6.81;100.00
63808;BME280;49961;43.970;22.868;2023-03-16T01:00:50;100735.91;;;6.65;100.00
63808;BME280;49961;43.970;22.868;2023-03-16T01:01:53;100715.09;;;6.57;100.00
63808;BME280;49961;43.970;22.868;2023-03-16T01:02:54;100768.53;;;6.70;100.00
63808;BME280;49961;43.970;22.868;2023-03-16T01:03:55;100774.81;;;6.67;100.00
63808;BME280;49961;43.970;22.868;2023-03-16T01:04:55;100755.19;;;6.65;100.00
63808;BME280;49961;43.970;22.868;2023-03-16T01:05:55;100783.81;;;6.75;100.00
63808;BME280;49961;43.970;22.868;2023-03-16T01:06:59;100765.00;;;6.66;100.00
63808;BME280;49961;43.970;22.868;2023-03-16T01:07:59;100754.41;;;6.61;100.00
63808;BME280;49961;43.970;22.868;2023-03-16T01:09:01;100779.53;;;6.70;100.00
63808;BME280;49961;43.970;22.868;2023-03-16T01:10:05;100781.13;;;6.68;100.00
63808;BME280;49961;43.970;22.868;2023-03-16T01:11:08;100771.00;;;6.51;100.00
63808;BME280;49961;43.970;22.868;2023-03-16T01:12:11;100777.66;;;6.57;100.00
63808;BME280;49961;43.970;22.868;2023-03-16T01:13:12;100776.44;;;6.61;100.00
63808;BME280;49961;43.970;22.868;2023-03-16T01:14:13;100698.06;;;6.15;100.00
63808;BME280;49961;43.970;22.868;2023-03-16T01:15:13;100778.03;;;6.59;100.00
63808;BME280;49961;43.970;22.868;2023-03-16T01:16:15;100778.84;;;6.56;100.00
63808;BME280;49961;43.970;22.868;2023-03-16T01:17:18;100776.84;;;6.63;100.00
63808;BME280;49961;43.970;22.868;2023-03-16T01:18:18;100772.91;;;6.57;100.00
63808;BME280;49961;43.970;22.868;2023-03-16T01:19:19;100781.53;;;6.63;100.00
63808;BME280;49961;43.970;22.868;2023-03-16T01:20:22;100710.97;;;6.21;100.00
63808;BME280;49961;43.970;22.868;2023-03-16T01:21:22;100783.50;;;6.62;100.00
63808;BME280;49961;43.970;22.868;2023-03-16T01:22:23;100774.88;;;6.60;100.00
63808;BME280;49961;43.970;22.868;2023-03-16T01:23:23;100751.72;;;6.47;100.00
63808;BME280;49961;43.970;22.868;2023-03-16T01:24:24;100774.09;;;6.63;100.00
63808;BME280;49961;43.970;22.868;2023-03-16T01:25:24;100780.75;;;6.62;100.00
63808;BME280;49961;43.970;22.868;2023-03-16T01:26:24;100782.72;;;6.65;100.00
63808;BME280;49961;43.970;22.868;2023-03-16T01:27:25;100785.50;;;6.62;100.00
63808;BME280;49961;43.970;22.868;2023-03-16T01:28:28;100787.47;;;6.58;100.00
63808;BME280;49961;43.970;22.868;2023-03-16T01:29:29;100782.38;;;6.53;100.00
63808;BME280;49961;43.970;22.868;2023-03-16T01:30:29;100788.28;;;6.51;100.00
63808;BME280;49961;43.970;22.868;2023-03-16T01:31:30;100769.41;;;6.50;100.00
63808;BME280;49961;43.970;22.868;2023-03-16T01:32:31;100783.09;;;6.67;100.00
63808;BME280;49961;43.970;22.868;2023-03-16T01:33:33;100790.94;;;6.69;100.00
63808;BME280;49961;43.970;22.868;2023-03-16T01:34:34;100790.97;;;6.65;100.00
63808;BME280;49961;43.970;22.868;2023-03-16T01:35:34;100795.28;;;6.66;100.00
63808;BME280;49961;43.970;22.868;2023-03-16T01:36:35;100786.59;;;6.71;100.00
63808;BME280;49961;43.970;22.868;2023-03-16T01:37:35;100784.31;;;6.59;100.00
63808;BME280;49961;43.970;22.868;2023-03-16T01:38:36;100793.78;;;6.55;100.00
63808;BME280;49961;43.970;22.868;2023-03-16T01:39:36;100703.22;;;5.95;100.00
63808;BME280;49961;43.970;22.868;2023-03-16T01:40:37;100791.81;;;6.55;100.00
63808;BME280;49961;43.970;22.868;2023-03-16T01:41:38;100791.41;;;6.57;100.00
63808;BME280;49961;43.970;22.868;2023-03-16T01:42:43;100794.16;;;6.57;100.00
63808;BME280;49961;43.970;22.868;2023-03-16T01:43:44;100798.84;;;6.60;100.00
63808;BME280;49961;43.970;22.868;2023-03-16T01:44:57;100794.16;;;6.60;100.00
63808;BME280;49961;43.970;22.868;2023-03-16T01:47:04;100810.25;;;6.65;100.00
63808;BME280;49961;43.970;22.868;2023-03-16T01:48:05;100806.31;;;6.66;100.00
63808;BME280;49961;43.970;22.868;2023-03-16T01:50:11;100800.84;;;6.59;100.00
63808;BME280;49961;43.970;22.868;2023-03-16T01:51:16;100804.03;;;6.51;100.00
63808;BME280;49961;43.970;22.868;2023-03-16T01:52:27;100811.53;;;6.43;100.00
63808;BME280;49961;43.970;22.868;2023-03-16T01:53:32;100822.56;;;6.43;100.00
63808;BME280;49961;43.970;22.868;2023-03-16T01:54:41;100815.44;;;6.42;100.00
63808;BME280;49961;43.970;22.868;2023-03-16T01:55:42;100699.34;;;5.86;100.00
63808;BME280;49961;43.970;22.868;2023-03-16T01:56:55;100810.31;;;6.51;100.00
63808;BME280;49961;43.970;22.868;2023-03-16T01:57:57;100819.78;;;6.47;100.00
63808;BME280;49961;43.970;22.868;2023-03-16T01:58:58;100760.56;;;6.04;100.00
63808;BME280;49961;43.970;22.868;2023-03-16T02:00:26;100828.81;;;6.44;100.00
63808;BME280;49961;43.970;22.868;2023-03-16T02:01:31;100820.97;;;6.46;100.00
63808;BME280;49961;43.970;22.868;2023-03-16T02:02:32;100828.38;;;6.52;100.00
63808;BME280;49961;43.970;22.868;2023-03-16T02:03:33;100827.25;;;6.46;100.00
63808;BME280;49961;43.970;22.868;2023-03-16T02:04:43;100700.97;;;5.52;100.00
63808;BME280;49961;43.970;22.868;2023-03-16T02:06:09;100829.22;;;6.42;100.00
63808;BME280;49961;43.970;22.868;2023-03-16T02:07:11;100849.31;;;6.29;100.00
63808;BME280;49961;43.970;22.868;2023-03-16T02:08:12;100822.25;;;6.17;100.00
63808;BME280;49961;43.970;22.868;2023-03-16T02:09:14;100645.72;;;4.94;100.00
63808;BME280;49961;43.970;22.868;2023-03-16T02:10:18;100838.31;;;6.29;100.00
63808;BME280;49961;43.970;22.868;2023-03-16T02:11:19;100836.38;;;6.26;100.00
63808;BME280;49961;43.970;22.868;2023-03-16T02:12:21;100831.66;;;6.30;100.00
63808;BME280;49961;43.970;22.868;2023-03-16T02:13:23;100847.75;;;6.28;100.00
63808;BME280;49961;43.970;22.868;2023-03-16T02:14:24;100838.72;;;6.27;100.00
63808;BME280;49961;43.970;22.868;2023-03-16T02:15:24;100843.06;;;6.21;100.00
63808;BME280;49961;43.970;22.868;2023-03-16T02:16:26;100851.69;;;6.30;100.00
63808;BME280;49961;43.970;22.868;2023-03-16T02:17:28;100848.53;;;6.35;100.00
63808;BME280;49961;43.970;22.868;2023-03-16T02:18:30;100841.84;;;6.33;100.00
63808;BME280;49961;43.970;22.868;2023-03-16T02:22:21;100853.25;;;6.31;100.00
63808;BME280;49961;43.970;22.868;2023-03-16T02:23:24;100856.38;;;6.37;100.00
63808;BME280;49961;43.970;22.868;2023-03-16T02:24:24;100859.91;;;6.34;100.00
63808;BME280;49961;43.970;22.868;2023-03-16T02:25:33;100836.03;;;6.10;100.00
63808;BME280;49961;43.970;22.868;2023-03-16T02:28:09;100858.75;;;6.28;100.00
63808;BME280;49961;43.970;22.868;2023-03-16T02:30:49;100857.19;;;6.27;100.00
63808;BME280;49961;43.970;22.868;2023-03-16T02:31:52;100878.41;;;6.26;100.00
63808;BME280;49961;43.970;22.868;2023-03-16T02:32:53;100879.63;;;6.22;100.00
63808;BME280;49961;43.970;22.868;2023-03-16T02:33:55;100876.09;;;6.18;100.00
63808;BME280;49961;43.970;22.868;2023-03-16T02:34:57;100743.78;;;5.32;100.00
63808;BME280;49961;43.970;22.868;2023-03-16T02:35:58;100879.25;;;6.20;100.00
63808;BME280;49961;43.970;22.868;2023-03-16T02:36:59;100768.53;;;5.53;100.00
63808;BME280;49961;43.970;22.868;2023-03-16T02:38:00;100860.34;;;6.32;100.00
63808;BME280;49961;43.970;22.868;2023-03-16T02:39:01;100879.63;;;6.32;100.00
63808;BME280;49961;43.970;22.868;2023-03-16T02:40:02;100869.41;;;6.26;100.00
63808;BME280;49961;43.970;22.868;2023-03-16T02:41:16;100886.31;;;6.24;100.00
63808;BME280;49961;43.970;22.868;2023-03-16T02:42:19;100880.81;;;6.14;100.00
63808;BME280;49961;43.970;22.868;2023-03-16T02:43:25;100880.03;;;6.17;100.00
63808;BME280;49961;43.970;22.868;2023-03-16T02:44:32;100872.94;;;6.09;100.00
63808;BME280;49961;43.970;22.868;2023-03-16T02:45:39;100876.88;;;6.11;100.00
63808;BME280;49961;43.970;22.868;2023-03-16T02:46:42;100875.31;;;6.10;100.00
63808;BME280;49961;43.970;22.868;2023-03-16T02:47:43;100882.41;;;6.08;100.00
63808;BME280;49961;43.970;22.868;2023-03-16T02:48:59;100883.16;;;6.15;100.00
63808;BME280;49961;43.970;22.868;2023-03-16T02:50:02;100880.78;;;6.24;100.00
63808;BME280;49961;43.970;22.868;2023-03-16T02:51:06;100874.16;;;6.04;100.00
63808;BME280;49961;43.970;22.868;2023-03-16T02:52:07;100878.84;;;6.18;100.00
63808;BME280;49961;43.970;22.868;2023-03-16T02:53:08;100886.69;;;6.26;100.00
63808;BME280;49961;43.970;22.868;2023-03-16T02:54:08;100887.06;;;6.32;100.00
63808;BME280;49961;43.970;22.868;2023-03-16T02:55:09;100883.53;;;6.31;100.00
63808;BME280;49961;43.970;22.868;2023-03-16T02:56:10;100889.78;;;6.39;100.00
63808;BME280;49961;43.970;22.868;2023-03-16T02:57:10;100893.38;;;6.32;100.00
63808;BME280;49961;43.970;22.868;2023-03-16T02:58:12;100889.44;;;6.19;100.00
63808;BME280;49961;43.970;22.868;2023-03-16T02:59:13;100891.41;;;6.26;100.00
63808;BME280;49961;43.970;22.868;2023-03-16T03:00:14;100879.63;;;6.22;100.00
63808;BME280;49961;43.970;22.868;2023-03-16T03:01:17;100889.81;;;6.32;100.00
63808;BME280;49961;43.970;22.868;2023-03-16T03:02:17;100891.00;;;6.24;100.00
63808;BME280;49961;43.970;22.868;2023-03-16T03:03:17;100748.50;;;5.38;100.00
63808;BME280;49961;43.970;22.868;2023-03-16T03:04:18;100898.88;;;6.25;100.00
63808;BME280;49961;43.970;22.868;2023-03-16T03:05:19;100889.44;;;6.30;100.00
63808;BME280;49961;43.970;22.868;2023-03-16T03:06:20;100876.88;;;6.08;100.00
63808;BME280;49961;43.970;22.868;2023-03-16T03:07:21;100889.06;;;6.21;100.00
63808;BME280;49961;43.970;22.868;2023-03-16T03:08:21;100884.34;;;6.14;100.00
63808;BME280;49961;43.970;22.868;2023-03-16T03:09:22;100895.72;;;6.27;100.00
63808;BME280;49961;43.970;22.868;2023-03-16T03:10:23;100894.97;;;6.16;100.00
63808;BME280;49961;43.970;22.868;2023-03-16T03:11:24;100902.00;;;6.24;100.00
63808;BME280;49961;43.970;22.868;2023-03-16T03:12:24;100894.53;;;6.28;100.00
63808;BME280;49961;43.970;22.868;2023-03-16T03:13:24;100891.03;;;6.17;100.00
63808;BME280;49961;43.970;22.868;2023-03-16T03:14:25;100808.97;;;5.49;100.00
63808;BME280;49961;43.970;22.868;2023-03-16T03:15:27;100891.81;;;6.10;100.00
63808;BME280;49961;43.970;22.868;2023-03-16T03:16:27;100899.28;;;6.13;100.00
63808;BME280;49961;43.970;22.868;2023-03-16T03:17:28;100758.72;;;5.31;100.00
63808;BME280;49961;43.970;22.868;2023-03-16T03:18:31;100896.91;;;6.19;100.00
63808;BME280;49961;43.970;22.868;2023-03-16T03:19:34;100889.44;;;6.23;100.00
63808;BME280;49961;43.970;22.868;2023-03-16T03:20:34;100875.31;;;6.17;100.00
63808;BME280;49961;43.970;22.868;2023-03-16T03:21:35;100896.13;;;6.25;100.00
63808;BME280;49961;43.970;22.868;2023-03-16T03:22:35;100906.34;;;6.18;100.00
63808;BME280;49961;43.970;22.868;2023-03-16T03:23:36;100904.38;;;6.22;100.00
63808;BME280;49961;43.970;22.868;2023-03-16T03:24:36;100906.75;;;6.20;100.00
63808;BME280;49961;43.970;22.868;2023-03-16T03:25:36;100902.44;;;6.12;100.00
63808;BME280;49961;43.970;22.868;2023-03-16T03:26:37;100907.53;;;6.17;100.00
63808;BME280;49961;43.970;22.868;2023-03-16T03:27:37;100917.78;;;6.20;100.00
63808;BME280;49961;43.970;22.868;2023-03-16T03:28:38;100915.41;;;6.22;100.00
63808;BME280;49961;43.970;22.868;2023-03-16T03:29:38;100757.16;;;5.26;100.00
63808;BME280;49961;43.970;22.868;2023-03-16T03:30:39;100920.13;;;6.25;100.00
63808;BME280;49961;43.970;22.868;2023-03-16T03:31:39;100920.09;;;6.35;100.00
63808;BME280;49961;43.970;22.868;2023-03-16T03:32:40;100918.91;;;6.33;100.00
63808;BME280;49961;43.970;22.868;2023-03-16T03:33:41;100909.50;;;6.20;100.00
63808;BME280;49961;43.970;22.868;2023-03-16T03:34:41;100927.56;;;6.31;100.00
63808;BME280;49961;43.970;22.868;2023-03-16T03:35:42;100926.41;;;6.32;100.00
63808;BME280;49961;43.970;22.868;2023-03-16T03:36:42;100933.09;;;6.35;100.00
63808;BME280;49961;43.970;22.868;2023-03-16T03:37:43;100934.25;;;6.34;100.00
63808;BME280;49961;43.970;22.868;2023-03-16T03:38:43;100935.03;;;6.38;100.00
63808;BME280;49961;43.970;22.868;2023-03-16T03:39:43;100933.41;;;6.47;100.00
63808;BME280;49961;43.970;22.868;2023-03-16T03:40:44;100932.25;;;6.48;100.00
63808;BME280;49961;43.970;22.868;2023-03-16T03:41:47;100931.84;;;6.50;100.00
63808;BME280;49961;43.970;22.868;2023-03-16T03:42:47;100942.03;;;6.60;100.00
63808;BME280;49961;43.970;22.868;2023-03-16T03:43:48;100942.81;;;6.64;100.00
63808;BME280;49961;43.970;22.868;2023-03-16T03:44:49;100948.31;;;6.67;100.00
63808;BME280;49961;43.970;22.868;2023-03-16T03:45:57;100949.09;;;6.71;100.00
63808;BME280;49961;43.970;22.868;2023-03-16T03:46:58;100923.53;;;6.64;100.00
63808;BME280;49961;43.970;22.868;2023-03-16T03:47:58;100942.78;;;6.78;100.00
63808;BME280;49961;43.970;22.868;2023-03-16T03:48:58;100947.91;;;6.79;100.00
63808;BME280;49961;43.970;22.868;2023-03-16T03:50:03;100829.75;;;5.99;100.00
63808;BME280;49961;43.970;22.868;2023-03-16T03:51:03;100943.53;;;6.89;100.00
63808;BME280;49961;43.970;22.868;2023-03-16T03:52:04;100943.13;;;6.90;100.00
63808;BME280;49961;43.970;22.868;2023-03-16T03:53:05;100950.59;;;6.93;100.00
63808;BME280;49961;43.970;22.868;2023-03-16T03:54:07;100944.28;;;6.96;100.00
63808;BME280;49961;43.970;22.868;2023-03-16T03:55:08;100892.50;;;6.53;100.00
63808;BME280;49961;43.970;22.868;2023-03-16T03:56:09;100860.75;;;6.27;100.00
63808;BME280;49961;43.970;22.868;2023-03-16T03:57:10;100951.44;;;6.80;100.00
63808;BME280;49961;43.970;22.868;2023-03-16T03:58:10;100841.09;;;6.11;100.00
63808;BME280;49961;43.970;22.868;2023-03-16T03:59:11;100944.34;;;6.79;100.00
63808;BME280;49961;43.970;22.868;2023-03-16T04:00:12;100955.75;;;6.84;100.00
63808;BME280;49961;43.970;22.868;2023-03-16T04:01:12;100949.88;;;6.75;100.00
63808;BME280;49961;43.970;22.868;2023-03-16T04:02:13;100963.25;;;6.77;100.00
63808;BME280;49961;43.970;22.868;2023-03-16T04:03:13;100946.34;;;6.68;100.00
63808;BME280;49961;43.970;22.868;2023-03-16T04:04:15;100960.94;;;6.68;100.00
63808;BME280;49961;43.970;22.868;2023-03-16T04:05:15;100969.19;;;6.72;100.00
63808;BME280;49961;43.970;22.868;2023-03-16T04:06:16;100964.06;;;6.70;100.00
63808;BME280;49961;43.970;22.868;2023-03-16T04:07:16;100956.59;;;6.71;100.00
63808;BME280;49961;43.970;22.868;2023-03-16T04:08:17;100964.03;;;6.74;100.00
63808;BME280;49961;43.970;22.868;2023-03-16T04:09:18;100939.31;;;6.53;100.00
63808;BME280;49961;43.970;22.868;2023-03-16T04:10:18;100966.78;;;6.74;100.00
63808;BME280;49961;43.970;22.868;2023-03-16T04:11:19;100957.75;;;6.70;100.00
63808;BME280;49961;43.970;22.868;2023-03-16T04:12:20;100961.72;;;6.65;100.00
63808;BME280;49961;43.970;22.868;2023-03-16T04:13:20;100965.25;;;6.69;100.00
63808;BME280;49961;43.970;22.868;2023-03-16T04:14:20;100957.75;;;6.66;100.00
63808;BME280;49961;43.970;22.868;2023-03-16T04:15:21;100950.31;;;6.56;100.00
63808;BME280;49961;43.970;22.868;2023-03-16T04:16:21;100943.66;;;6.50;100.00
63808;BME280;49961;43.970;22.868;2023-03-16T04:17:25;100951.13;;;6.57;100.00
63808;BME280;49961;43.970;22.868;2023-03-16T04:18:26;100964.50;;;6.44;100.00
63808;BME280;49961;43.970;22.868;2023-03-16T04:19:26;100950.78;;;6.37;100.00
63808;BME280;49961;43.970;22.868;2023-03-16T04:20:27;100966.84;;;6.42;100.00
63808;BME280;49961;43.970;22.868;2023-03-16T04:21:28;100967.28;;;6.41;100.00
63808;BME280;49961;43.970;22.868;2023-03-16T04:22:29;100973.16;;;6.43;100.00
63808;BME280;49961;43.970;22.868;2023-03-16T04:23:29;100971.59;;;6.38;100.00
63808;BME280;49961;43.970;22.868;2023-03-16T04:24:32;100970.03;;;6.37;100.00
63808;BME280;49961;43.970;22.868;2023-03-16T04:25:33;100979.06;;;6.34;100.00
63808;BME280;49961;43.970;22.868;2023-03-16T04:26:37;100970.41;;;6.43;100.00
63808;BME280;49961;43.970;22.868;2023-03-16T04:27:37;100971.19;;;6.50;100.00
63808;BME280;49961;43.970;22.868;2023-03-16T04:28:38;100761.88;;;5.19;100.00
63808;BME280;49961;43.970;22.868;2023-03-16T04:29:39;100988.84;;;6.60;100.00
63808;BME280;49961;43.970;22.868;2023-03-16T04:30:39;100966.06;;;6.52;100.00
63808;BME280;49961;43.970;22.868;2023-03-16T04:31:42;100976.69;;;6.54;100.00
63808;BME280;49961;43.970;22.868;2023-03-16T04:32:43;100977.50;;;6.51;100.00
63808;BME280;49961;43.970;22.868;2023-03-16T04:33:44;100986.91;;;6.57;100.00
63808;BME280;49961;43.970;22.868;2023-03-16T04:34:44;100971.97;;;6.54;100.00
63808;BME280;49961;43.970;22.868;2023-03-16T04:35:46;100982.97;;;6.61;100.00
63808;BME280;49961;43.970;22.868;2023-03-16T04:36:47;100993.97;;;6.65;100.00
63808;BME280;49961;43.970;22.868;2023-03-16T04:37:47;100994.75;;;6.69;100.00
63808;BME280;49961;43.970;22.868;2023-03-16T04:38:48;100991.97;;;6.72;100.00
63808;BME280;49961;43.970;22.868;2023-03-16T04:39:48;100991.19;;;6.79;100.00
63808;BME280;49961;43.970;22.868;2023-03-16T04:40:49;100990.00;;;6.80;100.00
63808;BME280;49961;43.970;22.868;2023-03-16T04:41:49;100985.28;;;6.77;100.00
63808;BME280;49961;43.970;22.868;2023-03-16T04:42:50;100993.97;;;6.72;100.00
63808;BME280;49961;43.970;22.868;2023-03-16T04:43:51;100988.84;;;6.67;100.00
63808;BME280;49961;43.970;22.868;2023-03-16T04:44:51;100995.13;;;6.74;100.00
63808;BME280;49961;43.970;22.868;2023-03-16T04:45:51;101000.63;;;6.78;100.00
63808;BME280;49961;43.970;22.868;2023-03-16T04:46:52;100966.47;;;6.51;100.00
63808;BME280;49961;43.970;22.868;2023-03-16T04:47:52;100983.34;;;6.67;100.00
63808;BME280;49961;43.970;22.868;2023-03-16T04:48:53;100901.25;;;6.13;100.00
63808;BME280;49961;43.970;22.868;2023-03-16T04:49:53;100997.91;;;6.71;100.00
63808;BME280;49961;43.970;22.868;2023-03-16T04:50:54;100996.69;;;6.75;100.00
63808;BME280;49961;43.970;22.868;2023-03-16T04:51:55;100989.22;;;6.79;100.00
63808;BME280;49961;43.970;22.868;2023-03-16T04:52:57;100983.34;;;6.56;100.00
63808;BME280;49961;43.970;22.868;2023-03-16T04:53:57;100990.78;;;6.80;100.00
63808;BME280;49961;43.970;22.868;2023-03-16T04:54:57;100999.41;;;6.93;100.00
63808;BME280;49961;43.970;22.868;2023-03-16T04:55:58;100995.84;;;6.99;100.00
63808;BME280;49961;43.970;22.868;2023-03-16T04:56:59;100994.66;;;7.00;100.00
63808;BME280;49961;43.970;22.868;2023-03-16T04:57:59;100991.50;;;6.98;100.00
63808;BME280;49961;43.970;22.868;2023-03-16T04:59:00;100866.28;;;5.99;100.00
63808;BME280;49961;43.970;22.868;2023-03-16T05:00:01;100977.00;;;6.84;100.00
63808;BME280;49961;43.970;22.868;2023-03-16T05:01:08;100996.19;;;7.08;100.00
63808;BME280;49961;43.970;22.868;2023-03-16T05:02:09;100996.19;;;7.15;100.00
63808;BME280;49961;43.970;22.868;2023-03-16T05:03:10;100999.31;;;7.17;100.00
63808;BME280;49961;43.970;22.868;2023-03-16T05:04:10;100832.09;;;6.00;100.00
63808;BME280;49961;43.970;22.868;2023-03-16T05:05:11;100993.47;;;7.01;100.00
63808;BME280;49961;43.970;22.868;2023-03-16T05:06:12;100997.00;;;7.09;100.00
63808;BME280;49961;43.970;22.868;2023-03-16T05:07:12;101001.31;;;7.17;100.00
63808;BME280;49961;43.970;22.868;2023-03-16T05:08:13;100998.53;;;7.17;100.00
63808;BME280;49961;43.970;22.868;2023-03-16T05:09:13;100966.69;;;7.05;100.00
63808;BME280;49961;43.970;22.868;2023-03-16T05:10:16;100987.09;;;7.18;100.00
63808;BME280;49961;43.970;22.868;2023-03-16T05:11:18;100994.59;;;7.11;100.00
63808;BME280;49961;43.970;22.868;2023-03-16T05:12:18;100991.84;;;7.11;100.00
63808;BME280;49961;43.970;22.868;2023-03-16T05:13:18;101002.53;;;7.05;100.00
63808;BME280;49961;43.970;22.868;2023-03-16T05:14:19;101003.72;;;6.97;100.00
63808;BME280;49961;43.970;22.868;2023-03-16T05:15:19;101003.34;;;6.92;100.00
63808;BME280;49961;43.970;22.868;2023-03-16T05:16:20;100980.16;;;6.79;100.00
63808;BME280;49961;43.970;22.868;2023-03-16T05:17:20;100999.38;;;7.00;100.00
63808;BME280;49961;43.970;22.868;2023-03-16T05:18:22;100993.88;;;6.96;100.00
63808;BME280;49961;43.970;22.868;2023-03-16T05:19:22;100993.44;;;7.05;100.00
63808;BME280;49961;43.970;22.868;2023-03-16T05:20:23;100994.25;;;7.05;100.00
63808;BME280;49961;43.970;22.868;2023-03-16T05:21:23;100995.41;;;7.08;100.00
63808;BME280;49961;43.970;22.868;2023-03-16T05:22:24;100995.81;;;7.06;100.00
63808;BME280;49961;43.970;22.868;2023-03-16T05:23:25;101004.03;;;7.20;100.00
63808;BME280;49961;43.970;22.868;2023-03-16T05:24:25;100994.59;;;7.18;100.00
63808;BME280;49961;43.970;22.868;2023-03-16T05:25:25;100996.94;;;7.23;100.00
63808;BME280;49961;43.970;22.868;2023-03-16T05:26:26;101000.44;;;7.30;100.00